createdAt,value
2022-12-03T00:04:04.938Z,21.40
2022-12-03T00:09:04.788Z,21.10
2022-12-03T00:14:04.713Z,21.40
2022-12-03T00:19:04.720Z,21.60
2022-12-03T00:24:04.743Z,21.60
2022-12-03T00:29:04.530Z,21.80
2022-12-03T00:34:04.449Z,22.20
2022-12-03T00:39:04.347Z,21.40
2022-12-03T00:44:04.348Z,22.00
2022-12-03T00:49:04.220Z,21.50
2022-12-03T00:54:04.202Z,22.50
2022-12-03T00:59:04.157Z,23.10
2022-12-03T01:04:04.032Z,22.20
2022-12-03T01:09:04.000Z,22.30
2022-12-03T01:14:03.922Z,22.10
2022-12-03T01:19:03.847Z,21.60
2022-12-03T01:24:03.848Z,22.70
2022-12-03T01:29:03.735Z,21.90
2022-12-03T01:34:03.656Z,21.70
2022-12-03T01:39:03.603Z,22.10
2022-12-03T01:44:03.521Z,21.90
2022-12-03T01:49:03.470Z,22.80
2022-12-03T01:54:03.484Z,21.80
2022-12-03T01:59:03.358Z,21.10
2022-12-03T02:04:03.393Z,21.40
2022-12-03T02:09:03.212Z,21.10
2022-12-03T02:14:03.135Z,21.70
2022-12-03T02:19:03.151Z,21.20
2022-12-03T02:24:03.080Z,21.20
2022-12-03T02:29:03.023Z,21.10
2022-12-03T02:34:02.902Z,20.40
2022-12-03T02:39:02.858Z,21.70
2022-12-03T02:44:02.795Z,21.80
2022-12-03T02:49:02.701Z,22.10
2022-12-03T02:54:02.683Z,21.20
2022-12-03T02:59:02.580Z,20.80
2022-12-03T03:04:02.502Z,20.40
2022-12-03T03:09:03.970Z,21.70
2022-12-03T03:14:02.513Z,21.30
2022-12-03T03:19:02.408Z,20.70
2022-12-03T03:24:02.567Z,21.10
2022-12-03T03:29:02.897Z,21.70
2022-12-03T03:34:03.638Z,20.40
2022-12-03T03:39:02.559Z,20.50
2022-12-03T03:44:02.697Z,20.70
2022-12-03T03:49:03.445Z,20.30
2022-12-03T03:54:06.053Z,21.10
2022-12-03T03:59:03.318Z,18.90
2022-12-03T04:04:02.020Z,19.10
2022-12-03T04:09:02.253Z,20.30
2022-12-03T04:14:03.123Z,19.40
2022-12-03T04:19:03.054Z,20.10
2022-12-03T04:24:01.746Z,18.90
2022-12-03T04:29:02.920Z,18.80
2022-12-03T04:34:01.419Z,20.70
2022-12-03T04:39:01.348Z,20.00
2022-12-03T04:44:01.400Z,19.70
2022-12-03T04:49:01.226Z,18.40
2022-12-03T04:54:02.597Z,19.00
2022-12-03T04:59:01.386Z,19.30
2022-12-03T05:04:01.035Z,19.10
2022-12-03T05:09:01.456Z,19.20
2022-12-03T05:14:02.353Z,18.80
2022-12-03T05:19:02.274Z,19.90
2022-12-03T05:24:00.908Z,19.60
2022-12-03T05:29:01.293Z,19.80
2022-12-03T05:34:01.224Z,18.50
2022-12-03T05:39:00.851Z,19.50
2022-12-03T05:44:00.722Z,19.00
2022-12-03T05:49:00.983Z,19.00
2022-12-03T05:54:00.656Z,18.50
2022-12-03T05:59:01.779Z,18.50
2022-12-03T06:04:04.457Z,19.10
2022-12-03T06:09:00.350Z,19.30
2022-12-03T06:14:00.198Z,19.60
2022-12-03T06:19:03.906Z,19.70
2022-12-03T06:24:01.448Z,20.00
2022-12-03T06:29:01.385Z,19.50
2022-12-03T06:34:00.184Z,19.80
2022-12-03T06:39:00.255Z,19.30
2022-12-03T06:43:59.774Z,19.20
2022-12-03T06:49:03.590Z,19.80
2022-12-03T06:54:00.083Z,19.50
2022-12-03T06:59:01.019Z,18.20
2022-12-03T07:04:00.962Z,18.10
2022-12-03T07:09:00.992Z,18.80
2022-12-03T07:14:04.702Z,18.40
2022-12-03T07:19:00.330Z,18.00
2022-12-03T07:23:59.465Z,18.00
2022-12-03T07:29:03.073Z,18.20
2022-12-03T07:34:00.608Z,18.30
2022-12-03T07:38:59.248Z,17.60
2022-12-03T07:44:00.529Z,19.70
2022-12-03T07:49:01.845Z,17.90
2022-12-03T07:53:59.769Z,18.60
2022-12-03T07:58:59.989Z,17.40
2022-12-03T08:04:00.354Z,17.50
2022-12-03T08:08:58.736Z,19.00
2022-12-03T08:14:01.242Z,18.20
2022-12-03T08:18:58.834Z,18.90
2022-12-03T08:23:59.993Z,19.30
2022-12-03T08:28:58.475Z,18.90
2022-12-03T08:33:59.142Z,18.50
2022-12-03T08:39:02.504Z,18.60
2022-12-03T08:43:58.281Z,19.20
2022-12-03T08:48:58.865Z,18.40
2022-12-03T08:54:01.921Z,18.70
2022-12-03T08:58:59.649Z,18.80
2022-12-03T09:03:59.693Z,18.50
2022-12-03T09:09:03.797Z,19.30
2022-12-03T09:14:00.389Z,20.30
2022-12-03T09:18:59.356Z,20.20
2022-12-03T09:23:59.772Z,20.90
2022-12-03T09:28:59.172Z,21.00
2022-12-03T09:33:59.514Z,20.90
2022-12-03T09:38:59.398Z,20.90
2022-12-03T09:44:05.936Z,20.30
2022-12-03T09:48:59.827Z,20.20
2022-12-03T09:54:04.567Z,21.70
2022-12-03T09:58:58.268Z,21.20
2022-12-03T10:03:58.845Z,21.50
2022-12-03T10:08:57.265Z,22.30
2022-12-03T10:13:59.257Z,21.70
2022-12-03T10:18:58.516Z,21.60
2022-12-03T10:23:57.897Z,21.50
2022-12-03T10:28:58.322Z,22.20
2022-12-03T10:33:57.857Z,22.70
2022-12-03T10:38:58.397Z,21.20
2022-12-03T10:43:58.544Z,21.40
2022-12-03T10:48:59.930Z,21.50
2022-12-03T10:53:58.240Z,22.10
2022-12-03T10:58:57.984Z,21.30
2022-12-03T11:03:58.063Z,21.90
2022-12-03T11:08:59.398Z,22.00
2022-12-03T11:13:57.501Z,22.10
2022-12-03T11:18:57.635Z,22.00
2022-12-03T11:23:56.152Z,21.20
2022-12-03T11:28:56.172Z,22.60
2022-12-03T11:33:56.133Z,22.90
2022-12-03T11:38:56.038Z,23.50
2022-12-03T11:43:56.520Z,23.40
2022-12-03T11:48:59.646Z,23.20
2022-12-03T11:53:55.762Z,23.50
2022-12-03T11:58:56.284Z,22.80
2022-12-03T12:03:55.939Z,22.50
2022-12-03T12:08:59.489Z,24.00
2022-12-03T12:13:59.781Z,23.60
2022-12-03T12:18:59.550Z,23.00
2022-12-03T12:23:56.808Z,24.90
2022-12-03T12:28:56.917Z,24.60
2022-12-03T12:33:56.747Z,24.50
2022-12-03T12:38:56.701Z,24.20
2022-12-03T12:43:56.687Z,23.20
2022-12-03T12:48:59.662Z,23.30
2022-12-03T12:53:56.604Z,23.80
2022-12-03T12:58:55.284Z,21.90
2022-12-03T13:03:55.727Z,23.60
2022-12-03T13:08:55.085Z,24.50
2022-12-03T13:13:55.116Z,22.10
2022-12-03T13:18:56.118Z,23.20
2022-12-03T13:23:54.728Z,21.20
2022-12-03T13:28:54.663Z,21.40
2022-12-03T13:33:58.795Z,21.10
2022-12-03T13:38:54.636Z,21.40
2022-12-03T13:43:54.917Z,21.50
2022-12-03T13:48:57.426Z,21.00
2022-12-03T13:53:55.467Z,21.80
2022-12-03T13:58:54.370Z,20.60
2022-12-03T14:03:58.442Z,22.50
2022-12-03T14:08:54.027Z,19.60
2022-12-03T14:13:57.986Z,18.40
2022-12-03T14:18:54.294Z,16.20
2022-12-03T14:23:54.176Z,17.40
2022-12-03T14:29:00.392Z,16.80
2022-12-03T14:33:54.223Z,16.80
2022-12-03T14:38:54.143Z,17.30
2022-12-03T14:43:53.772Z,19.30
2022-12-03T14:48:54.217Z,19.50
2022-12-03T14:53:57.230Z,20.70
2022-12-03T14:58:53.383Z,20.30
2022-12-03T15:03:53.331Z,22.30
2022-12-03T15:09:14.037Z,22.60
2022-12-03T15:13:57.091Z,22.80
2022-12-03T15:18:53.277Z,23.30
2022-12-03T15:23:54.497Z,24.80
2022-12-03T15:28:54.427Z,23.90
2022-12-03T15:33:54.449Z,25.10
2022-12-03T15:38:54.361Z,22.30
2022-12-03T15:43:54.447Z,22.40
2022-12-03T15:48:54.271Z,24.40
2022-12-03T15:53:54.118Z,24.50
2022-12-03T15:58:54.045Z,24.90
2022-12-03T16:03:54.077Z,25.20
2022-12-03T16:08:56.415Z,25.10
2022-12-03T16:13:52.965Z,24.70
2022-12-03T16:18:52.910Z,24.90
2022-12-03T16:23:52.335Z,24.00
2022-12-03T16:28:52.676Z,23.80
2022-12-03T16:33:52.556Z,24.60
2022-12-03T16:38:53.534Z,23.50
2022-12-03T16:43:56.133Z,24.00
2022-12-03T16:48:55.909Z,24.20
2022-12-03T16:53:53.339Z,23.40
2022-12-03T16:58:53.254Z,23.20
2022-12-03T17:03:51.885Z,24.10
2022-12-03T17:08:51.735Z,24.00
2022-12-03T17:13:52.053Z,24.00
2022-12-03T17:18:51.993Z,23.50
2022-12-03T17:23:52.933Z,24.90
2022-12-03T17:28:51.519Z,24.40
2022-12-03T17:33:51.597Z,24.80
2022-12-03T17:38:51.331Z,24.00
2022-12-03T17:43:52.690Z,23.70
2022-12-03T17:48:51.593Z,23.90
2022-12-03T17:53:52.551Z,24.50
2022-12-03T17:58:51.053Z,25.20
2022-12-03T18:03:52.518Z,24.90
2022-12-03T18:08:52.368Z,23.60
2022-12-03T18:13:51.048Z,24.60
2022-12-03T18:18:56.373Z,24.00
2022-12-03T18:23:51.742Z,25.20
2022-12-03T18:28:50.848Z,41.40
2022-12-03T18:33:50.588Z,23.50
2022-12-03T18:38:51.985Z,23.10
2022-12-03T18:43:50.579Z,26.50
2022-12-03T18:48:50.427Z,24.40
2022-12-03T18:53:50.545Z,22.70
2022-12-03T18:58:50.656Z,22.10
2022-12-03T19:03:54.206Z,22.70
2022-12-03T19:08:50.319Z,22.80
2022-12-03T19:13:54.275Z,22.80
2022-12-03T19:18:50.539Z,21.00
2022-12-03T19:24:22.658Z,22.10
2022-12-03T19:28:51.112Z,21.40
2022-12-03T19:33:50.235Z,21.20
2022-12-03T19:38:55.189Z,21.90
2022-12-03T19:43:51.024Z,21.20
2022-12-03T19:48:53.726Z,21.40
2022-12-03T19:53:50.123Z,19.20
2022-12-03T19:58:50.923Z,21.90
2022-12-03T20:03:49.595Z,20.40
2022-12-03T20:08:49.417Z,20.80
2022-12-03T20:13:51.280Z,20.50
2022-12-03T20:18:49.287Z,22.80
2022-12-03T20:23:50.171Z,22.30
2022-12-03T20:28:50.652Z,23.20
2022-12-03T20:33:50.675Z,24.60
2022-12-03T20:38:49.882Z,25.30
2022-12-03T20:43:49.253Z,25.00
2022-12-03T20:48:48.882Z,24.90
2022-12-03T20:53:49.047Z,25.80
2022-12-03T20:58:48.984Z,26.10
2022-12-03T21:03:49.204Z,27.50
2022-12-03T21:08:49.415Z,27.30
2022-12-03T21:13:49.543Z,30.70
2022-12-03T21:18:48.785Z,27.00
2022-12-03T21:23:48.616Z,27.50
2022-12-03T21:28:49.790Z,27.40
2022-12-03T21:33:48.409Z,27.20
2022-12-03T21:38:49.341Z,27.10
2022-12-03T21:43:48.652Z,29.20
2022-12-03T21:48:51.969Z,27.40
2022-12-03T21:53:49.463Z,27.60
2022-12-03T21:58:48.226Z,27.80
2022-12-03T22:03:49.349Z,27.60
2022-12-03T22:08:49.268Z,28.80
2022-12-03T22:13:48.150Z,28.10
2022-12-03T22:18:51.620Z,27.20
2022-12-03T22:23:51.647Z,27.50
2022-12-03T22:28:47.849Z,28.30
2022-12-03T22:33:51.482Z,27.30
2022-12-03T22:38:48.458Z,27.90
2022-12-03T22:43:47.532Z,28.40
2022-12-03T22:48:51.300Z,28.20
2022-12-03T22:53:47.326Z,27.50
2022-12-03T22:58:47.236Z,27.10
2022-12-03T23:03:47.465Z,27.00
2022-12-03T23:08:48.487Z,26.40
2022-12-03T23:13:48.396Z,25.70
2022-12-03T23:18:46.901Z,25.80
2022-12-03T23:23:46.837Z,27.00
2022-12-03T23:28:46.959Z,27.40
2022-12-03T23:33:48.312Z,27.50
2022-12-03T23:38:48.097Z,27.10
2022-12-03T23:43:47.095Z,26.90
2022-12-03T23:48:46.584Z,25.60
2022-12-03T23:53:47.904Z,26.70
2022-12-03T23:58:46.352Z,25.30
